Latest Weather Observations for Daly Waters

IDD60801

Issued at 8:05 am CST Thursday 27 November 2014 (issued every 30 minutes, with the page automatically refreshed every 10 minutes)

About weather observations | Map of weather stations | Latest weather observations for NT | Other Formats
Station Details ID: 014626 Name: DALY WATERS AIRSTRIP Lat: -16.26 Lon: 133.38 Height: 209.84 m
Data from the previous 72 hours. | See also: Recent months at Daly Waters
Date/Time
CST
Temp
°C
App
Temp
°C
Dew
Point
Rel
Hum
%
Delta-T
°C
Wind Press
QNH
hPa
Press
MSL
hPa
Rain
since 9 am
mm
Dir
 
Spd
km/h
Gust
km/h
Spd
kts
Gust
kts
27/08:00am 28.6 31.6 20.9 63 5.2 ENE 6 11 3 6 1011.3 1009.7 0.2
27/07:30am 27.9 30.8 21.0 66 4.6 ENE 7 11 4 6 1011.1 1009.5 0.2
27/07:00am 26.7 29.8 21.0 71 3.8 E 6 9 3 5 1010.9 1009.3 0.2
27/06:30am 25.8 29.7 21.9 79 2.6 E 4 6 2 3 1010.5 1008.9 0.2
27/06:00am 24.9 28.7 21.6 82 2.2 E 4 6 2 3 1010.1 1008.5 0.2
27/05:30am 24.8 29.3 21.5 82 2.2 CALM 0 4 0 2 1009.9 1008.3 0.2
27/05:00am 25.0 29.5 21.5 81 2.3 CALM 0 0 0 0 1009.6 1007.9 0.2
27/04:30am 25.2 29.6 21.3 79 2.6 CALM 0 4 0 2 1009.5 1007.8 0.2
27/04:00am 25.4 29.9 21.5 79 2.6 CALM 0 0 0 0 1009.5 1007.8 0.2
27/03:30am 25.4 29.8 21.3 78 2.7 CALM 0 2 0 1 1009.1 1007.4 0.2
27/03:00am 25.4 29.8 21.3 78 2.7 CALM 0 0 0 0 1009.0 1007.3 0.2
27/02:30am 25.3 29.6 21.2 78 2.7 CALM 0 0 0 0 1009.1 1007.4 0.2
27/02:00am 25.3 29.7 21.4 79 2.6 CALM 0 0 0 0 1009.2 1007.5 0.2
27/01:30am 25.4 29.7 21.1 77 2.9 CALM 0 0 0 0 1009.4 1007.7 0.2
27/01:00am 25.4 29.4 20.6 75 3.2 CALM 0 0 0 0 1009.7 1008.1 0.2
27/12:30am 25.5 29.5 20.5 74 3.3 CALM 0 4 0 2 1009.8 1008.2 0.2
27/12:00am 25.6 29.4 20.2 72 3.5 CALM 0 0 0 0 1010.0 1008.4 0.2
 
Date/Time
CST
Temp
°C
App
Temp
°C
Dew
Point
Rel
Hum
%
Delta-T
°C
Wind Press
QNH
hPa
Press
MSL
hPa
Rain
since 9 am
mm
Dir
 
Spd
km/h
Gust
km/h
Spd
kts
Gust
kts
26/11:30pm 25.8 28.7 19.9 70 3.9 SSE 4 7 2 4 1010.2 1008.6 0.2
26/11:00pm 25.9 28.3 20.0 70 3.9 SE 7 11 4 6 1010.5 1008.9 0.2
26/10:30pm 26.0 28.0 19.9 69 4.0 SSE 9 15 5 8 1010.4 1008.8 0.2
26/10:00pm 26.7 27.8 19.6 65 4.6 SSE 13 20 7 11 1010.4 1008.8 0.2
26/09:30pm 27.9 29.6 20.2 63 5.1 SE 11 20 6 11 1010.5 1008.9 0.2
26/09:00pm 27.4 29.8 19.7 63 5.1 S 6 9 3 5 1010.2 1008.6 0.2
26/08:30pm 26.9 29.6 20.3 67 4.4 SSE 6 7 3 4 1009.9 1008.3 0.2
26/08:00pm 27.0 30.8 20.1 66 4.5 CALM 0 2 0 1 1009.4 1007.7 0.2
26/07:30pm 27.4 29.6 19.5 62 5.2 NNW 7 11 4 6 1009.3 1007.6 0.2
26/07:00pm 28.4 29.7 19.3 57 5.9 NNE 11 17 6 9 1008.9 1007.2 0.2
26/06:30pm 29.7 29.9 18.5 51 7.3 NNE 15 24 8 13 1008.3 1006.7 0.2
26/06:00pm 30.0 30.8 18.1 49 7.7 SE 11 22 6 12 1007.5 1005.9 0.2
26/05:30pm 30.8 30.8 18.2 47 8.2 SE 15 26 8 14 1007.1 1005.5 0.2
26/05:00pm 32.5 33.6 17.9 41 9.5 SE 9 15 5 8 1006.5 1004.9 0.2
26/04:30pm 32.1 33.0 18.3 44 9.0 S 11 15 6 8 1006.5 1004.9 0.2
26/04:00pm 33.4 34.1 17.1 37 10.5 SE 9 19 5 10 1006.5 1004.9 0.2
26/03:30pm 34.2 35.3 16.5 34 11.3 E 6 9 3 5 1006.8 1005.2 0.2
26/03:00pm 34.7 34.5 15.6 32 12.1 E 11 20 6 11 1006.5 1004.9 0.2
26/02:30pm 35.2 35.3 15.5 30 12.5 E 9 20 5 11 1006.8 1005.2 0.2
26/02:00pm 35.4 36.1 16.2 32 12.3 NE 7 17 4 9 1007.2 1005.6 0.2
26/01:30pm 34.3 35.2 16.6 34 11.4 NE 7 15 4 8 1007.7 1006.1 0.2
26/01:00pm 34.8 34.9 16.6 33 11.7 NE 11 22 6 12 1008.3 1006.7 0.2
26/12:30pm 34.7 36.5 18.7 38 10.6 ENE 7 15 4 8 1008.9 1007.2 0.2
26/12:00pm 34.3 36.1 19.5 41 9.9 NE 9 17 5 9 1009.6 1007.9 0.2
26/11:30am 33.3 36.1 20.5 47 8.6 NNE 6 15 3 8 1009.8 1008.2 0.2
26/11:00am 32.4 34.5 19.3 46 8.7 ENE 7 15 4 8 1010.3 1008.7 0.2
26/10:30am 32.0 34.7 20.6 51 7.7 ENE 7 13 4 7 1010.5 1008.9 0.2
26/10:00am 30.3 32.8 20.2 54 6.7 E 7 11 4 6 1011.0 1009.4 0.2
26/09:30am 29.7 31.9 19.7 55 6.6 ESE 7 17 4 9 1011.2 1009.6 0.2
26/09:00am 29.1 30.8 19.4 55 6.4 ESE 9 20 5 11 1011.2 1009.6 20.8
26/08:30am 27.6 28.8 19.9 63 5.1 SE 13 20 7 11 1010.9 1009.3 20.8
26/08:00am 26.2 29.0 20.8 72 3.6 SE 7 15 4 8 1010.9 1009.3 20.8
26/07:30am 25.3 27.5 21.2 78 2.7 SE 11 19 6 10 1010.4 1008.8 20.8
26/07:00am 25.0 27.9 21.7 82 2.2 SSE 9 20 5 11 1010.4 1008.8 20.8
26/06:30am 24.9 28.6 22.2 85 1.8 SSE 6 11 3 6 1010.2 1008.6 20.8
26/06:00am 24.6 28.1 22.1 86 1.7 SSE 7 17 4 9 1009.9 1008.3 20.8
26/05:30am 24.5 28.6 22.2 87 1.6 SSE 4 7 2 4 1009.9 1008.3 20.8
26/05:00am 24.3 27.9 22.0 87 1.5 SSE 6 7 3 4 1009.8 1008.2 20.8
26/04:30am 24.4 27.9 21.9 86 1.7 SSE 6 9 3 5 1009.3 1007.6 20.8
26/04:00am 24.5 28.0 22.2 87 1.5 SE 7 13 4 7 1009.0 1007.3 20.8
26/03:30am 24.6 28.3 22.5 88 1.4 SSE 7 13 4 7 1008.7 1007.0 20.8
26/03:00am 24.5 28.4 22.6 89 1.3 S 6 11 3 6 1008.9 1007.2 20.8
26/02:30am 24.3 27.4 22.2 88 1.4 S 9 17 5 9 1008.7 1007.0 20.8
26/02:00am 24.3 28.4 22.2 88 1.4 SSW 4 6 2 3 1008.8 1007.1 20.8
26/01:30am 24.3 28.0 22.2 88 1.4 SSW 6 7 3 4 1009.2 1007.5 20.8
26/01:00am 24.4 28.5 22.3 88 1.4 SSW 4 6 2 3 1009.6 1007.9 20.8
26/12:30am 24.4 28.5 22.3 88 1.4 SW 4 6 2 3 1010.0 1008.4 20.8
26/12:00am 24.4 29.4 22.5 89 1.3 CALM 0 4 0 2 1010.4 1008.8 20.8
 
Date/Time
CST
Temp
°C
App
Temp
°C
Dew
Point
Rel
Hum
%
Delta-T
°C
Wind Press
QNH
hPa
Press
MSL
hPa
Rain
since 9 am
mm
Dir
 
Spd
km/h
Gust
km/h
Spd
kts
Gust
kts
25/11:30pm 24.2 28.2 22.1 88 1.4 SSW 4 7 2 4 1010.5 1008.9 20.8
25/11:00pm 24.2 27.9 22.3 89 1.3 WSW 6 9 3 5 1010.4 1008.8 20.8
25/10:30pm 24.3 29.1 22.2 88 1.4 CALM 0 0 0 0 1010.5 1008.9 20.8
25/10:00pm 24.3 28.5 22.4 89 1.3 NNW 4 6 2 3 1010.3 1008.7 20.8
25/09:30pm 24.1 27.8 22.2 89 1.3 N 6 9 3 5 1009.9 1008.3 20.8
25/09:00pm 23.9 27.5 22.0 89 1.3 WSW 6 9 3 5 1009.5 1007.8 20.6
25/08:30pm 24.0 28.0 22.1 89 1.3 W 4 6 2 3 1009.5 1007.8 20.4
25/08:00pm 23.8 27.3 21.9 89 1.3 S 6 9 3 5 1010.3 1008.7 19.4
25/07:30pm 23.6 27.1 21.9 90 1.1 SE 6 7 3 4 1010.3 1008.7 17.8
25/07:00pm 23.2 26.4 21.3 89 1.3 E 6 11 3 6 1010.7 1009.1 15.4
25/06:30pm 23.1 26.0 21.0 88 1.4 S 7 9 4 5 1009.8 1008.2 12.8
25/06:00pm 25.1 23.7 20.4 75 3.1 ENE 28 41 15 22 1009.3 1007.6 0.0
25/05:30pm 28.8 29.7 20.0 59 5.8 S 15 28 8 15 1007.4 1005.8 0.0
25/05:00pm 28.4 31.2 20.4 62 5.3 SW 6 9 3 5 1006.5 1004.9 0.0
25/04:30pm 28.7 31.5 20.4 60 5.5 W 6 9 3 5 1006.7 1005.1 0.0
25/04:00pm 28.9 31.3 20.1 59 5.8 NNW 7 15 4 8 1006.6 1005.0 0.0
25/03:30pm 30.1 31.2 18.8 50 7.4 N 11 17 6 9 1006.9 1005.3 0.0
25/03:00pm 32.8 34.2 17.8 40 9.7 N 7 17 4 9 1006.3 1004.7 0.0
25/02:30pm 29.8 28.7 18.6 51 7.3 ENE 22 33 12 18 1006.5 1004.9 0.0
25/02:23pm 30.9 30.3 18.9 48 7.9 ENE 20 32 11 17 1006.8 1005.2 0.0
25/02:00pm 36.0 37.4 17.7 34 12.0 SE 7 22 4 12 1006.6 1005.0 0.0
25/01:30pm 37.3 38.5 17.3 30 13.1 N 7 15 4 8 1006.8 1005.2 0.0
25/01:00pm 36.5 37.6 18.1 33 12.1 N 9 20 5 11 1007.6 1006.0 0.0
25/12:30pm 35.9 38.2 18.5 36 11.5 W 4 9 2 5 1008.7 1007.0 0.0
25/12:00pm 34.2 35.2 17.8 37 10.7 NNE 9 17 5 9 1009.3 1007.6 0.0
25/11:30am 34.1 35.1 18.6 40 10.2 NW 11 19 6 10 1009.7 1008.1 0.0
25/11:00am 34.2 36.9 20.2 43 9.4 WNW 6 13 3 7 1010.1 1008.5 0.0
25/10:30am 32.9 35.3 20.1 47 8.6 NW 7 15 4 8 1010.5 1008.9 0.0
25/10:00am 32.4 34.7 20.6 49 7.9 N 9 15 5 8 1010.5 1008.9 0.0
25/09:30am 30.9 33.8 21.1 56 6.6 NW 7 13 4 7 1010.7 1009.1 0.0
25/09:00am 29.6 32.9 21.8 63 5.3 NNW 7 11 4 6 1010.7 1009.1 0.0
25/08:30am 28.0 30.9 21.1 66 4.6 N 7 13 4 7 1010.7 1009.1 0.0
25/08:00am 28.0 30.5 21.1 66 4.6 NNE 9 17 5 9 1011.0 1009.4 0.0
25/07:30am 27.9 30.1 21.2 67 4.5 NE 11 17 6 9 1011.2 1009.6 0.0
25/07:00am 27.1 29.5 20.9 69 4.1 ENE 9 13 5 7 1010.4 1008.8 0.0
25/06:30am 26.6 28.9 20.7 70 3.9 ENE 9 13 5 7 1009.8 1008.2 0.0
25/06:00am 26.5 28.8 20.6 70 3.9 ENE 9 17 5 9 1009.2 1007.5 0.0
25/05:30am 26.8 28.7 20.6 69 4.1 ENE 11 19 6 10 1009.0 1007.3 0.0
25/05:00am 27.2 29.2 20.8 68 4.3 ENE 11 17 6 9 1008.5 1006.9 0.0
25/04:30am 27.4 29.6 20.5 66 4.6 NE 9 13 5 7 1008.2 1006.6 0.0
25/04:00am 27.2 29.6 20.8 68 4.3 ENE 9 13 5 7 1008.2 1006.6 0.0
25/03:30am 27.2 29.8 20.5 67 4.4 ENE 7 13 4 7 1008.3 1006.7 0.0
25/03:00am 26.8 30.6 20.2 67 4.4 CALM 0 6 0 3 1008.8 1007.1 0.0
25/02:30am 27.1 30.6 20.4 66 4.4 E 2 4 1 2 1009.3 1007.6 0.0
25/02:00am 27.4 30.1 20.2 65 4.8 ENE 6 7 3 4 1009.4 1007.7 0.0
25/01:30am 28.3 32.1 20.1 61 5.4 CALM 0 0 0 0 1009.3 1007.6 0.0
25/01:00am 28.6 31.1 20.3 60 5.5 WSW 7 13 4 7 1009.4 1007.7 0.0
25/12:30am 28.4 32.2 20.2 61 5.4 CALM 0 4 0 2 1009.5 1007.8 0.0
25/12:00am 28.5 31.5 20.0 60 5.6 ENE 4 7 2 4 1009.4 1007.7 0.0
 
Date/Time
CST
Temp
°C
App
Temp
°C
Dew
Point
Rel
Hum
%
Delta-T
°C
Wind Press
QNH
hPa
Press
MSL
hPa
Rain
since 9 am
mm
Dir
 
Spd
km/h
Gust
km/h
Spd
kts
Gust
kts
24/11:30pm 28.8 31.4 20.0 59 5.8 E 6 7 3 4 1009.7 1008.1 0.0
24/11:00pm 28.9 32.7 20.1 59 5.8 CALM 0 4 0 2 1009.9 1008.3 0.0
24/10:30pm 29.3 31.6 19.9 57 6.2 N 7 13 4 7 1010.1 1008.5 0.0
24/10:00pm 30.8 32.8 18.8 48 7.8 NNE 6 9 3 5 1009.9 1008.3 0.0
24/09:30pm 30.8 32.7 18.5 47 8.0 W 6 7 3 4 1009.5 1007.8 0.0
24/09:00pm 30.8 33.2 18.8 48 7.9 NNW 4 7 2 4 1009.4 1007.7 0.0
24/08:30pm 30.4 33.6 18.8 50 7.6 CALM 0 0 0 0 1008.5 1006.9 0.0
24/08:00pm 30.7 33.5 18.8 49 7.8 N 2 4 1 2 1007.7 1006.1 0.0
24/07:30pm 31.1 33.2 18.1 46 8.4 NNE 4 6 2 3 1007.4 1005.8 0.0
24/07:00pm 31.4 32.9 17.7 44 8.8 NW 6 9 3 5 1007.1 1005.5 0.0
24/06:30pm 31.8 33.3 17.7 43 9.1 NE 6 9 3 5 1006.3 1004.7 0.0
24/06:00pm 32.3 34.1 17.4 41 9.6 WNW 4 7 2 4 1007.0 1005.4 0.0
24/05:30pm 33.0 34.1 17.2 39 10.2 NNW 7 11 4 6 1006.3 1004.7 0.0
24/05:00pm 33.3 34.9 17.9 40 10.0 N 6 11 3 6 1006.0 1004.4 0.0
24/04:30pm 33.9 35.0 17.2 37 10.8 NNW 7 13 4 7 1006.1 1004.5 0.0
24/04:00pm 33.5 34.8 17.2 37 10.5 N 6 9 3 5 1006.3 1004.7 0.0
24/03:30pm 34.7 35.4 17.0 35 11.4 N 9 17 5 9 1005.6 1004.0 0.0
24/03:00pm 37.0 36.3 15.5 28 13.7 SSE 13 22 7 12 1005.8 1004.2 0.0
24/02:30pm 37.6 36.9 15.4 27 14.2 W 13 20 7 11 1006.1 1004.5 0.0
24/02:00pm 39.0 38.7 15.4 25 15.1 W 11 24 6 13 1006.6 1005.0 0.0
24/01:30pm 37.8 36.4 14.4 25 14.7 W 15 24 8 13 1007.5 1005.9 0.0
24/01:00pm 36.8 37.6 16.4 30 13.1 WNW 7 11 4 6 1008.2 1006.6 0.0
24/12:30pm 35.5 36.5 16.3 32 12.3 WNW 6 11 3 6 1009.3 1007.6 0.0
24/12:00pm 35.5 35.9 16.3 32 12.3 NW 9 15 5 8 1009.9 1008.3 0.0
24/11:30am 35.0 35.4 16.3 32 12.0 W 9 17 5 9 1010.5 1008.9 0.0
24/11:00am 34.2 34.7 16.5 34 11.3 WNW 9 15 5 8 1010.7 1009.1 0.0
24/10:30am 34.2 33.8 16.1 34 11.5 WNW 13 20 7 11 1010.9 1009.3 0.0
24/10:00am 34.1 34.4 16.9 36 11.1 WNW 11 19 6 10 1010.8 1009.2 0.0
24/09:30am 33.5 34.1 17.6 38 10.3 NW 11 19 6 10 1010.8 1009.2 0.0
24/09:00am 33.3 33.1 17.5 39 10.2 WNW 15 24 8 13 1010.7 1009.1 0.0
24/08:30am 32.6 32.9 18.8 44 9.1 WNW 15 24 8 13 1010.7 1009.1 0.0

Other Formats:

Comma delimited format used in spreadsheet applications
http://www.bom.gov.au/fwo/IDD60801/IDD60801.94234.axf

JavaScript Object Notation format (JSON) in row-major order
http://www.bom.gov.au/fwo/IDD60801/IDD60801.94234.json